メインページ
METAR-TAF:

METAR-TAF

空港 :

フェアバンクス, アラスカ州, アメリカ合衆国

フェアバンクス国際空港

緯度: 64-48-14N, 経度: 147-52-34W, 海抜: 132m

現時点の気象観測

当レポートは41分前の21:53(UTC)に作成
北/北東の風 4kt
気温 22°C
湿度 57%
気圧 1008 hPa
視程: 16.1km
高度6000ftの雲は散在している, 積乱雲.
高度12000ftの千切れ雲あり
高度15000ftの千切れ雲あり

METAR: PAFA 262153Z COR 03004KT 10SM SCT060CB BKN120 BKN150 22/13 A2977 RMK AO2 SLP084 CB SW MOV NE T02220128

時間: 14:34 (22:34 UTC)

予報

当レポートは5時間4分前の17:30(UTC)に作成
予報は26日の 18時(UTC)から 27日の 24時(UTC)まで有効
の風 kt
視程: 10km
高度8000ftの雲は散在している
高度10000ftの千切れ雲あり
高度20000ftの千切れ雲あり
26日の 2100時(UTC)から
北/北東の風 7kt
視程: 10km
高度5000ftの千切れ雲あり, 積乱雲.
近辺で激しい雷雨
27日の 0600時(UTC)から
北/北東の風 5kt
視程: 10km
高度5000ftの千切れ雲あり
近辺でにわか雨

TAF: PAFA 261730Z 2618/2724 00000KT P6SM SCT080 BKN100 BKN200 FM262100 03007KT P6SM VCTS BKN050CB FM270600 03005KT P6SM VCSH BKN050

4,000以上の空港の気象観測と天気予報(METAR報とTAF報)

利用可能な観測所は地図上に黄色い丸と赤い丸で示す。

丸の上にカーソルを重ねると観測所名を参照できる。

次にクリックすると気象観測と天気予報を参照できる。

マップの切り替え:黒色「×」印の緑ボタンをクリックして拡大、「-」印の緑ボタンをクリックして縮小、緑色の三角印をクリックして隣りの地図に切り替え


METAR-TAF: